Main page
METAR-TAF:

METAR-TAF

Airports :

Paulo Afonso Airport

Paulo Afonso, Bahia, Brazil

latitude: 09-24S, longitude: 038-13W, elevation: 253 m

Current weather observation

The report was made 11 hours and 15 minutes ago, at 12:00 UTC
Wind 12 kt from the East
Temperature 26°C
Humidity 70%
Pressure 1019 hPa
Visibility: 4000 m
Broken clouds at a height of 1000 ft
Broken clouds at a height of 1500 ft
light rain

METAR: SBUF 201200Z 10012KT 4000 -RA BKN010 BKN015 26/20 Q1019

Time: 20:15 (23:15 UTC)


TAF: missing

Weather observations and forecasts of more than 4000 airports (METAR and TAF reports).

The available stations are represented by yellow and red dots on the map.

Hover mouse over dot to see the name of the station.

Then click to see weather observations and forecasts.

To change the map : click on the green buttons with a black cross to zoom in, on the green button with a dash to zoom out, or on the green arrows for adjacent maps.


METAR-TAF: